sensor_id;sensor_type;location;lat;lon;timestamp;P1;durP1;ratioP1;P2;durP2;ratioP2
45863;SDS011;31579;52.354;16.974;2023-03-14T00:04:29;6.90;;;3.40;;
45863;SDS011;31579;52.354;16.974;2023-03-14T00:09:29;6.90;;;3.40;;
45863;SDS011;31579;52.354;16.974;2023-03-14T00:14:30;6.40;;;3.40;;
45863;SDS011;31579;52.354;16.974;2023-03-14T00:19:33;6.40;;;3.40;;
45863;SDS011;31579;52.354;16.974;2023-03-14T00:24:29;7.60;;;3.30;;
45863;SDS011;31579;52.354;16.974;2023-03-14T00:29:29;7.60;;;3.30;;
45863;SDS011;31579;52.354;16.974;2023-03-14T00:34:30;5.20;;;2.90;;
45863;SDS011;31579;52.354;16.974;2023-03-14T00:39:29;5.20;;;2.90;;
45863;SDS011;31579;52.354;16.974;2023-03-14T00:44:29;6.10;;;2.70;;
45863;SDS011;31579;52.354;16.974;2023-03-14T00:49:30;6.10;;;2.70;;
45863;SDS011;31579;52.354;16.974;2023-03-14T00:54:29;4.60;;;2.40;;
45863;SDS011;31579;52.354;16.974;2023-03-14T00:59:29;4.60;;;2.40;;
45863;SDS011;31579;52.354;16.974;2023-03-14T01:09:24;3.80;;;2.00;;
45863;SDS011;31579;52.354;16.974;2023-03-14T01:14:24;2.90;;;1.40;;
45863;SDS011;31579;52.354;16.974;2023-03-14T01:19:24;2.90;;;1.40;;
45863;SDS011;31579;52.354;16.974;2023-03-14T01:24:24;2.40;;;0.90;;
45863;SDS011;31579;52.354;16.974;2023-03-14T01:29:24;2.40;;;0.90;;
45863;SDS011;31579;52.354;16.974;2023-03-14T01:34:24;2.80;;;0.90;;
45863;SDS011;31579;52.354;16.974;2023-03-14T01:39:24;2.80;;;0.90;;
45863;SDS011;31579;52.354;16.974;2023-03-14T01:44:24;2.10;;;0.70;;
45863;SDS011;31579;52.354;16.974;2023-03-14T01:54:27;2.80;;;0.70;;
45863;SDS011;31579;52.354;16.974;2023-03-14T01:59:24;2.80;;;0.70;;
45863;SDS011;31579;52.354;16.974;2023-03-14T02:00:07;2.90;;;0.80;;
45863;SDS011;31579;52.354;16.974;2023-03-14T02:05:04;2.90;;;0.80;;
45863;SDS011;31579;52.354;16.974;2023-03-14T02:10:04;3.60;;;0.80;;
45863;SDS011;31579;52.354;16.974;2023-03-14T02:15:04;3.60;;;0.80;;
45863;SDS011;31579;52.354;16.974;2023-03-14T02:25:09;3.10;;;1.40;;
45863;SDS011;31579;52.354;16.974;2023-03-14T02:35:06;3.60;;;1.80;;
45863;SDS011;31579;52.354;16.974;2023-03-14T02:40:04;5.60;;;2.00;;
45863;SDS011;31579;52.354;16.974;2023-03-14T02:50:06;4.70;;;2.30;;
45863;SDS011;31579;52.354;16.974;2023-03-14T02:55:04;4.70;;;2.30;;
45863;SDS011;31579;52.354;16.974;2023-03-14T03:00:04;6.20;;;3.10;;
45863;SDS011;31579;52.354;16.974;2023-03-14T03:05:04;6.20;;;3.10;;
45863;SDS011;31579;52.354;16.974;2023-03-14T03:10:04;6.30;;;3.30;;
45863;SDS011;31579;52.354;16.974;2023-03-14T03:15:04;6.30;;;3.30;;
45863;SDS011;31579;52.354;16.974;2023-03-14T03:20:04;6.70;;;3.60;;
45863;SDS011;31579;52.354;16.974;2023-03-14T03:25:15;6.70;;;3.60;;
45863;SDS011;31579;52.354;16.974;2023-03-14T03:30:13;8.10;;;3.80;;
45863;SDS011;31579;52.354;16.974;2023-03-14T03:35:13;8.10;;;3.80;;
45863;SDS011;31579;52.354;16.974;2023-03-14T03:40:13;9.60;;;4.60;;
45863;SDS011;31579;52.354;16.974;2023-03-14T03:45:13;9.60;;;4.60;;
45863;SDS011;31579;52.354;16.974;2023-03-14T03:50:13;7.50;;;4.10;;
45863;SDS011;31579;52.354;16.974;2023-03-14T03:55:16;7.50;;;4.10;;
45863;SDS011;31579;52.354;16.974;2023-03-14T04:00:13;9.60;;;5.00;;
45863;SDS011;31579;52.354;16.974;2023-03-14T04:05:13;9.60;;;5.00;;
45863;SDS011;31579;52.354;16.974;2023-03-14T04:10:14;8.60;;;5.00;;
45863;SDS011;31579;52.354;16.974;2023-03-14T04:20:22;8.70;;;4.10;;
45863;SDS011;31579;52.354;16.974;2023-03-14T04:25:21;8.70;;;4.10;;
45863;SDS011;31579;52.354;16.974;2023-03-14T04:30:22;9.80;;;4.50;;
45863;SDS011;31579;52.354;16.974;2023-03-14T04:35:21;9.80;;;4.50;;
45863;SDS011;31579;52.354;16.974;2023-03-14T04:40:22;9.20;;;5.20;;
45863;SDS011;31579;52.354;16.974;2023-03-14T04:45:22;9.20;;;5.20;;
45863;SDS011;31579;52.354;16.974;2023-03-14T04:50:22;7.90;;;4.20;;
45863;SDS011;31579;52.354;16.974;2023-03-14T04:55:21;7.90;;;4.20;;
45863;SDS011;31579;52.354;16.974;2023-03-14T05:00:25;9.50;;;4.80;;
45863;SDS011;31579;52.354;16.974;2023-03-14T05:09:44;9.70;;;5.10;;
45863;SDS011;31579;52.354;16.974;2023-03-14T05:14:44;9.70;;;5.10;;
45863;SDS011;31579;52.354;16.974;2023-03-14T05:19:44;9.60;;;4.80;;
45863;SDS011;31579;52.354;16.974;2023-03-14T05:24:44;9.60;;;4.80;;
45863;SDS011;31579;52.354;16.974;2023-03-14T05:29:44;8.80;;;4.70;;
45863;SDS011;31579;52.354;16.974;2023-03-14T05:34:45;8.80;;;4.70;;
45863;SDS011;31579;52.354;16.974;2023-03-14T05:39:44;8.50;;;5.30;;
45863;SDS011;31579;52.354;16.974;2023-03-14T05:44:44;8.50;;;5.30;;
45863;SDS011;31579;52.354;16.974;2023-03-14T05:49:44;8.90;;;4.50;;
45863;SDS011;31579;52.354;16.974;2023-03-14T05:54:44;8.90;;;4.50;;
45863;SDS011;31579;52.354;16.974;2023-03-14T05:59:44;10.30;;;5.20;;
45863;SDS011;31579;52.354;16.974;2023-03-14T06:04:44;10.30;;;5.20;;
45863;SDS011;31579;52.354;16.974;2023-03-14T06:09:44;10.20;;;5.20;;
45863;SDS011;31579;52.354;16.974;2023-03-14T06:14:44;10.20;;;5.20;;
45863;SDS011;31579;52.354;16.974;2023-03-14T06:19:47;10.10;;;4.40;;
45863;SDS011;31579;52.354;16.974;2023-03-14T06:24:45;10.10;;;4.40;;
45863;SDS011;31579;52.354;16.974;2023-03-14T06:29:45;7.70;;;4.70;;
45863;SDS011;31579;52.354;16.974;2023-03-14T06:34:45;7.70;;;4.70;;
45863;SDS011;31579;52.354;16.974;2023-03-14T06:39:45;7.90;;;4.30;;
45863;SDS011;31579;52.354;16.974;2023-03-14T06:44:45;7.90;;;4.30;;
45863;SDS011;31579;52.354;16.974;2023-03-14T06:49:46;8.10;;;3.70;;
45863;SDS011;31579;52.354;16.974;2023-03-14T06:54:45;8.10;;;3.70;;
45863;SDS011;31579;52.354;16.974;2023-03-14T06:59:45;6.50;;;3.40;;
45863;SDS011;31579;52.354;16.974;2023-03-14T07:04:46;6.50;;;3.40;;
45863;SDS011;31579;52.354;16.974;2023-03-14T07:09:45;8.10;;;3.50;;
45863;SDS011;31579;52.354;16.974;2023-03-14T07:14:45;8.10;;;3.50;;
45863;SDS011;31579;52.354;16.974;2023-03-14T07:19:45;6.20;;;3.20;;
45863;SDS011;31579;52.354;16.974;2023-03-14T07:24:45;6.20;;;3.20;;
45863;SDS011;31579;52.354;16.974;2023-03-14T07:29:45;6.00;;;2.70;;
45863;SDS011;31579;52.354;16.974;2023-03-14T07:34:45;6.00;;;2.70;;
45863;SDS011;31579;52.354;16.974;2023-03-14T07:39:45;5.50;;;2.30;;
45863;SDS011;31579;52.354;16.974;2023-03-14T07:44:45;5.50;;;2.30;;
45863;SDS011;31579;52.354;16.974;2023-03-14T07:49:45;6.30;;;2.90;;
45863;SDS011;31579;52.354;16.974;2023-03-14T07:54:45;6.30;;;2.90;;
45863;SDS011;31579;52.354;16.974;2023-03-14T07:59:45;5.70;;;2.80;;
45863;SDS011;31579;52.354;16.974;2023-03-14T08:04:45;5.70;;;2.80;;
45863;SDS011;31579;52.354;16.974;2023-03-14T08:09:45;4.90;;;2.60;;
45863;SDS011;31579;52.354;16.974;2023-03-14T08:14:45;4.90;;;2.60;;
45863;SDS011;31579;52.354;16.974;2023-03-14T08:19:45;5.50;;;2.80;;
45863;SDS011;31579;52.354;16.974;2023-03-14T08:24:48;5.50;;;2.80;;
45863;SDS011;31579;52.354;16.974;2023-03-14T08:29:45;4.40;;;1.60;;
45863;SDS011;31579;52.354;16.974;2023-03-14T08:34:45;4.40;;;1.60;;
45863;SDS011;31579;52.354;16.974;2023-03-14T08:39:45;4.40;;;1.60;;
45863;SDS011;31579;52.354;16.974;2023-03-14T08:44:45;3.80;;;1.30;;
45863;SDS011;31579;52.354;16.974;2023-03-14T08:49:45;3.20;;;1.10;;
45863;SDS011;31579;52.354;16.974;2023-03-14T08:54:45;3.20;;;1.10;;
45863;SDS011;31579;52.354;16.974;2023-03-14T08:59:45;4.30;;;1.50;;
45863;SDS011;31579;52.354;16.974;2023-03-14T09:04:45;4.30;;;1.50;;
45863;SDS011;31579;52.354;16.974;2023-03-14T09:09:45;5.90;;;1.40;;
45863;SDS011;31579;52.354;16.974;2023-03-14T09:10:36;5.90;;;1.40;;
45863;SDS011;31579;52.354;16.974;2023-03-14T09:15:33;5.90;;;1.40;;
45863;SDS011;31579;52.354;16.974;2023-03-14T09:20:33;3.90;;;1.40;;
45863;SDS011;31579;52.354;16.974;2023-03-14T09:21:28;3.90;;;1.40;;
45863;SDS011;31579;52.354;16.974;2023-03-14T09:26:27;3.90;;;1.40;;
45863;SDS011;31579;52.354;16.974;2023-03-14T09:31:27;5.20;;;1.70;;
45863;SDS011;31579;52.354;16.974;2023-03-14T09:36:27;5.20;;;1.70;;
45863;SDS011;31579;52.354;16.974;2023-03-14T09:41:29;4.00;;;1.60;;
45863;SDS011;31579;52.354;16.974;2023-03-14T09:46:27;4.00;;;1.60;;
45863;SDS011;31579;52.354;16.974;2023-03-14T09:51:27;5.10;;;1.70;;
45863;SDS011;31579;52.354;16.974;2023-03-14T09:56:26;5.10;;;1.70;;
45863;SDS011;31579;52.354;16.974;2023-03-14T10:01:28;4.50;;;1.70;;
45863;SDS011;31579;52.354;16.974;2023-03-14T10:06:31;4.50;;;1.70;;
45863;SDS011;31579;52.354;16.974;2023-03-14T10:11:26;6.10;;;1.80;;
45863;SDS011;31579;52.354;16.974;2023-03-14T10:21:28;5.00;;;1.70;;
45863;SDS011;31579;52.354;16.974;2023-03-14T10:26:27;5.00;;;1.70;;
45863;SDS011;31579;52.354;16.974;2023-03-14T10:31:26;6.00;;;1.80;;
45863;SDS011;31579;52.354;16.974;2023-03-14T10:36:27;6.00;;;1.80;;
45863;SDS011;31579;52.354;16.974;2023-03-14T10:41:26;6.70;;;1.80;;
45863;SDS011;31579;52.354;16.974;2023-03-14T10:46:26;6.70;;;1.80;;
45863;SDS011;31579;52.354;16.974;2023-03-14T10:51:27;5.00;;;1.90;;
45863;SDS011;31579;52.354;16.974;2023-03-14T10:56:26;5.00;;;1.90;;
45863;SDS011;31579;52.354;16.974;2023-03-14T11:38:09;4.80;;;2.10;;
45863;SDS011;31579;52.354;16.974;2023-03-14T11:53:08;4.70;;;2.10;;
45863;SDS011;31579;52.354;16.974;2023-03-14T12:00:57;5.70;;;2.10;;
45863;SDS011;31579;52.354;16.974;2023-03-14T12:07:13;5.70;;;2.10;;
45863;SDS011;31579;52.354;16.974;2023-03-14T12:13:47;5.70;;;2.10;;
45863;SDS011;31579;52.354;16.974;2023-03-14T12:18:46;5.70;;;2.10;;
45863;SDS011;31579;52.354;16.974;2023-03-14T12:34:00;5.10;;;2.10;;
45863;SDS011;31579;52.354;16.974;2023-03-14T12:35:40;5.10;;;2.10;;
45863;SDS011;31579;52.354;16.974;2023-03-14T12:40:37;5.10;;;1.50;;
45863;SDS011;31579;52.354;16.974;2023-03-14T13:00:30;5.50;;;1.60;;
45863;SDS011;31579;52.354;16.974;2023-03-14T13:05:28;5.50;;;1.60;;
45863;SDS011;31579;52.354;16.974;2023-03-14T13:14:08;4.90;;;1.00;;
45863;SDS011;31579;52.354;16.974;2023-03-14T13:19:04;4.90;;;1.00;;
45863;SDS011;31579;52.354;16.974;2023-03-14T13:24:04;4.20;;;0.70;;
45863;SDS011;31579;52.354;16.974;2023-03-14T13:34:06;3.20;;;0.80;;
45863;SDS011;31579;52.354;16.974;2023-03-14T13:44:05;3.20;;;0.80;;
45863;SDS011;31579;52.354;16.974;2023-03-14T13:49:03;3.20;;;0.80;;
45863;SDS011;31579;52.354;16.974;2023-03-14T13:54:03;5.70;;;1.40;;
45863;SDS011;31579;52.354;16.974;2023-03-14T13:59:03;5.70;;;1.40;;
45863;SDS011;31579;52.354;16.974;2023-03-14T14:19:12;3.60;;;1.00;;
45863;SDS011;31579;52.354;16.974;2023-03-14T14:24:12;4.80;;;0.90;;
45863;SDS011;31579;52.354;16.974;2023-03-14T14:29:20;2.70;;;0.90;;
45863;SDS011;31579;52.354;16.974;2023-03-14T14:44:18;3.80;;;0.70;;
45863;SDS011;31579;52.354;16.974;2023-03-14T14:49:13;5.90;;;1.70;;
45863;SDS011;31579;52.354;16.974;2023-03-14T14:54:14;5.90;;;1.70;;
45863;SDS011;31579;52.354;16.974;2023-03-14T15:04:12;3.30;;;1.00;;
45863;SDS011;31579;52.354;16.974;2023-03-14T15:09:12;3.20;;;0.90;;
45863;SDS011;31579;52.354;16.974;2023-03-14T15:14:12;3.20;;;0.90;;
45863;SDS011;31579;52.354;16.974;2023-03-14T15:19:15;6.00;;;1.40;;
45863;SDS011;31579;52.354;16.974;2023-03-14T15:24:12;6.00;;;1.40;;
45863;SDS011;31579;52.354;16.974;2023-03-14T15:29:12;6.00;;;1.40;;
45863;SDS011;31579;52.354;16.974;2023-03-14T15:34:10;4.20;;;1.60;;
45863;SDS011;31579;52.354;16.974;2023-03-14T15:39:10;5.80;;;2.10;;
45863;SDS011;31579;52.354;16.974;2023-03-14T15:44:14;5.80;;;2.10;;
45863;SDS011;31579;52.354;16.974;2023-03-14T15:49:10;5.10;;;2.20;;
45863;SDS011;31579;52.354;16.974;2023-03-14T15:54:10;5.10;;;2.20;;
45863;SDS011;31579;52.354;16.974;2023-03-14T15:59:10;8.20;;;3.10;;
45863;SDS011;31579;52.354;16.974;2023-03-14T16:04:10;8.20;;;3.10;;
45863;SDS011;31579;52.354;16.974;2023-03-14T16:09:11;5.60;;;2.30;;
45863;SDS011;31579;52.354;16.974;2023-03-14T16:14:10;5.60;;;2.30;;
45863;SDS011;31579;52.354;16.974;2023-03-14T16:19:10;5.20;;;2.00;;
45863;SDS011;31579;52.354;16.974;2023-03-14T16:24:10;5.20;;;2.00;;
45863;SDS011;31579;52.354;16.974;2023-03-14T16:29:10;4.00;;;2.00;;
45863;SDS011;31579;52.354;16.974;2023-03-14T16:34:10;4.00;;;2.00;;
45863;SDS011;31579;52.354;16.974;2023-03-14T16:39:10;7.30;;;3.00;;
45863;SDS011;31579;52.354;16.974;2023-03-14T16:44:10;7.30;;;3.00;;
45863;SDS011;31579;52.354;16.974;2023-03-14T16:50:03;4.90;;;2.10;;
45863;SDS011;31579;52.354;16.974;2023-03-14T16:55:03;4.90;;;2.10;;
45863;SDS011;31579;52.354;16.974;2023-03-14T16:59:05;4.90;;;2.10;;
45863;SDS011;31579;52.354;16.974;2023-03-14T17:04:03;4.90;;;2.10;;
45863;SDS011;31579;52.354;16.974;2023-03-14T17:09:04;4.90;;;2.10;;
45863;SDS011;31579;52.354;16.974;2023-03-14T17:14:03;9.30;;;2.80;;
45863;SDS011;31579;52.354;16.974;2023-03-14T17:19:03;9.30;;;2.80;;
45863;SDS011;31579;52.354;16.974;2023-03-14T17:24:03;7.50;;;2.40;;
45863;SDS011;31579;52.354;16.974;2023-03-14T17:29:06;7.30;;;3.00;;
45863;SDS011;31579;52.354;16.974;2023-03-14T17:34:03;7.30;;;3.00;;
45863;SDS011;31579;52.354;16.974;2023-03-14T17:35:28;7.30;;;3.00;;
45863;SDS011;31579;52.354;16.974;2023-03-14T17:40:27;5.90;;;2.20;;
45863;SDS011;31579;52.354;16.974;2023-03-14T17:45:26;5.90;;;2.20;;
45863;SDS011;31579;52.354;16.974;2023-03-14T17:50:26;5.90;;;2.40;;
45863;SDS011;31579;52.354;16.974;2023-03-14T17:55:26;5.90;;;2.40;;
45863;SDS011;31579;52.354;16.974;2023-03-14T18:00:26;6.30;;;2.40;;
45863;SDS011;31579;52.354;16.974;2023-03-14T18:05:26;6.30;;;2.40;;
45863;SDS011;31579;52.354;16.974;2023-03-14T18:10:26;6.00;;;2.90;;
45863;SDS011;31579;52.354;16.974;2023-03-14T18:15:26;6.00;;;2.90;;
45863;SDS011;31579;52.354;16.974;2023-03-14T18:20:27;7.90;;;3.40;;
45863;SDS011;31579;52.354;16.974;2023-03-14T18:25:26;7.90;;;3.40;;
45863;SDS011;31579;52.354;16.974;2023-03-14T18:34:02;7.60;;;2.80;;
45863;SDS011;31579;52.354;16.974;2023-03-14T18:39:03;5.70;;;2.70;;
45863;SDS011;31579;52.354;16.974;2023-03-14T18:44:02;5.70;;;2.70;;
45863;SDS011;31579;52.354;16.974;2023-03-14T18:49:02;24.70;;;11.40;;
45863;SDS011;31579;52.354;16.974;2023-03-14T18:54:03;24.70;;;11.40;;
45863;SDS011;31579;52.354;16.974;2023-03-14T18:59:06;5.40;;;2.80;;
45863;SDS011;31579;52.354;16.974;2023-03-14T19:04:03;5.40;;;2.80;;
45863;SDS011;31579;52.354;16.974;2023-03-14T19:09:03;7.50;;;3.80;;
45863;SDS011;31579;52.354;16.974;2023-03-14T19:14:02;7.50;;;3.80;;
45863;SDS011;31579;52.354;16.974;2023-03-14T19:19:02;9.50;;;4.60;;
45863;SDS011;31579;52.354;16.974;2023-03-14T19:24:03;9.50;;;4.60;;
45863;SDS011;31579;52.354;16.974;2023-03-14T19:29:04;10.10;;;4.90;;
45863;SDS011;31579;52.354;16.974;2023-03-14T19:34:03;10.10;;;4.90;;
45863;SDS011;31579;52.354;16.974;2023-03-14T19:39:04;3.50;;;1.40;;
45863;SDS011;31579;52.354;16.974;2023-03-14T19:44:02;3.50;;;1.40;;
45863;SDS011;31579;52.354;16.974;2023-03-14T19:49:02;4.00;;;1.00;;
45863;SDS011;31579;52.354;16.974;2023-03-14T19:54:02;4.00;;;1.00;;
45863;SDS011;31579;52.354;16.974;2023-03-14T20:02:54;4.00;;;1.00;;
45863;SDS011;31579;52.354;16.974;2023-03-14T20:07:54;4.00;;;1.00;;
45863;SDS011;31579;52.354;16.974;2023-03-14T20:12:54;2.20;;;0.60;;
45863;SDS011;31579;52.354;16.974;2023-03-14T20:17:54;2.20;;;0.60;;
45863;SDS011;31579;52.354;16.974;2023-03-14T20:22:54;2.80;;;0.80;;
45863;SDS011;31579;52.354;16.974;2023-03-14T20:27:58;2.80;;;0.80;;
45863;SDS011;31579;52.354;16.974;2023-03-14T20:32:54;2.70;;;0.70;;
45863;SDS011;31579;52.354;16.974;2023-03-14T20:37:54;2.70;;;0.70;;
45863;SDS011;31579;52.354;16.974;2023-03-14T20:42:55;2.20;;;0.60;;
45863;SDS011;31579;52.354;16.974;2023-03-14T20:47:54;2.20;;;0.60;;
45863;SDS011;31579;52.354;16.974;2023-03-14T20:52:54;2.50;;;0.70;;
45863;SDS011;31579;52.354;16.974;2023-03-14T20:57:54;2.50;;;0.70;;
45863;SDS011;31579;52.354;16.974;2023-03-14T21:02:54;2.60;;;0.70;;
45863;SDS011;31579;52.354;16.974;2023-03-14T21:07:54;2.60;;;0.70;;
45863;SDS011;31579;52.354;16.974;2023-03-14T21:12:54;3.30;;;0.90;;
45863;SDS011;31579;52.354;16.974;2023-03-14T21:17:54;3.30;;;0.90;;
45863;SDS011;31579;52.354;16.974;2023-03-14T21:22:54;3.70;;;1.10;;
45863;SDS011;31579;52.354;16.974;2023-03-14T21:27:54;3.70;;;1.10;;
45863;SDS011;31579;52.354;16.974;2023-03-14T21:32:54;4.80;;;1.30;;
45863;SDS011;31579;52.354;16.974;2023-03-14T21:37:54;4.80;;;1.30;;
45863;SDS011;31579;52.354;16.974;2023-03-14T21:42:54;4.20;;;1.60;;
45863;SDS011;31579;52.354;16.974;2023-03-14T21:47:55;4.20;;;1.60;;
45863;SDS011;31579;52.354;16.974;2023-03-14T21:52:54;5.90;;;2.00;;
45863;SDS011;31579;52.354;16.974;2023-03-14T21:57:54;5.90;;;2.00;;
45863;SDS011;31579;52.354;16.974;2023-03-14T22:02:54;5.60;;;2.40;;
45863;SDS011;31579;52.354;16.974;2023-03-14T22:07:54;5.60;;;2.40;;
45863;SDS011;31579;52.354;16.974;2023-03-14T22:12:54;10.10;;;4.00;;
45863;SDS011;31579;52.354;16.974;2023-03-14T22:17:54;10.10;;;4.00;;
45863;SDS011;31579;52.354;16.974;2023-03-14T22:22:55;9.80;;;4.90;;
45863;SDS011;31579;52.354;16.974;2023-03-14T22:27:54;9.80;;;4.90;;
45863;SDS011;31579;52.354;16.974;2023-03-14T22:32:54;10.30;;;5.50;;
45863;SDS011;31579;52.354;16.974;2023-03-14T22:37:54;10.30;;;5.50;;
45863;SDS011;31579;52.354;16.974;2023-03-14T22:42:54;12.90;;;5.30;;
45863;SDS011;31579;52.354;16.974;2023-03-14T22:47:54;12.90;;;5.30;;
45863;SDS011;31579;52.354;16.974;2023-03-14T22:52:54;13.60;;;5.30;;
45863;SDS011;31579;52.354;16.974;2023-03-14T22:57:54;13.60;;;5.30;;
45863;SDS011;31579;52.354;16.974;2023-03-14T23:02:54;10.50;;;4.90;;
45863;SDS011;31579;52.354;16.974;2023-03-14T23:07:54;10.50;;;4.90;;
45863;SDS011;31579;52.354;16.974;2023-03-14T23:12:54;11.20;;;4.60;;
45863;SDS011;31579;52.354;16.974;2023-03-14T23:17:54;11.20;;;4.60;;
45863;SDS011;31579;52.354;16.974;2023-03-14T23:22:54;13.80;;;4.60;;
45863;SDS011;31579;52.354;16.974;2023-03-14T23:27:54;13.80;;;4.60;;
45863;SDS011;31579;52.354;16.974;2023-03-14T23:30:57;12.60;;;3.60;;
45863;SDS011;31579;52.354;16.974;2023-03-14T23:35:55;12.60;;;3.60;;
45863;SDS011;31579;52.354;16.974;2023-03-14T23:40:56;10.40;;;3.30;;
45863;SDS011;31579;52.354;16.974;2023-03-14T23:45:56;10.40;;;3.30;;
45863;SDS011;31579;52.354;16.974;2023-03-14T23:50:56;7.80;;;2.80;;
45863;SDS011;31579;52.354;16.974;2023-03-14T23:55:56;7.80;;;2.80;;
